WEATHER DATA

YESTERDAY
Time Temp. Dewp. Hum. Wind dir Wind speed Wind gust Bar. 1h Prec. 24h Prec.
00:03 9.3 4.7 73 270 0.8 1.9 1025.5 0.0000 0.0000
00:13 9.2 4.6 73 270 0.8 2.2 1025.4 0.0000 0.0000
00:24 9 4.4 73 270 0.6 1.9 1025.4 0.0000 0.0000
00:33 8.9 4.5 74 270 0.6 1.9 1025.3 0.0000 0.0000
00:43 8.6 4.2 74 270 0.6 1.7 1025.3 0.0000 0.0000
01:29 7.8 3.8 76 293 0.6 1.7 1025.3 0.0000 0.0000
01:39 7.7 3.9 77 270 0.3 1.7 1025.3 0.0000 0.0000
01:49 7.6 3.8 77 291 0.6 1.9 1025.3 0.0000 0.0000
01:59 7.4 3.8 78 270 0.6 1.7 1025.4 0.0000 0.0000
02:34 7.4 4.2 80 270 0.6 1.7 1025.4 0.0000 0.0000
03:09 7.5 4.3 80 270 0.3 0.8 1025 0.0000 0.0000
03:20 7.3 3.9 79 270 0.3 1.4 1025.1 0.0000 0.0000
03:30 7.2 3.8 79 270 0.3 1.9 1025.2 0.0000 0.0000
03:45 7.1 3.9 80 270 0.3 1.9 1025.2 0.0000 0.0000
03:55 7.1 4.1 81 270 0.3 1.4 1025.2 0.0000 0.0000
04:30 7.6 4.7 82 270 0.3 1.4 1025.2 0.0000 0.0000
04:40 7.7 4.8 82 168 0.3 0.8 1025.1 0.0000 0.0000
05:11 8 5.1 82 270 0.3 1.4 1024.9 0.0000 0.0000
05:36 8.2 5.1 81 285 0.6 1.7 1024.8 0.0000 0.0000
05:46 8.3 5.2 81 270 0.3 1.4 1024.7 0.0000 0.0000
05:56 8.5 5.4 81 270 0.6 1.9 1024.5 0.0000 0.0000
06:05 8.6 5.5 81 270 0.6 1.9 1024.4 0.0000 0.0000
06:26 8.8 5.5 80 270 0.3 1.4 1024.5 0.0000 0.0000
06:41 8.9 5.6 80 270 0.8 1.7 1024.4 0.0000 0.0000
06:56 9.1 5.7 79 270 0.6 1.7 1024.4 0.0000 0.0000
07:06 9.1 5.7 79 270 0.6 1.9 1024.4 0.0000 0.0000
07:16 9.2 5.8 79 270 0.3 1.4 1024.3 0.0000 0.0000
07:36 9.3 5.8 79 209 0.3 0.8 1024.4 0.0000 0.0000
07:46 9.3 5.8 79 194 0.3 0.8 1024.3 0.0000 0.0000
07:57 9.4 5.9 79 233 0.3 2.2 1024.3 0.0000 0.0000
08:07 9.5 6 79 202 0.3 0.8 1024.3 0.0000 0.0000
08:16 9.7 6.2 79 198 0.3 1.4 1024.4 0.0000 0.0000
08:26 9.8 6.3 79 200 0.3 1.4 1024.5 0.0000 0.0000
08:42 10.1 6.6 79 241 0.6 1.9 1024.5 0.0000 0.0000
08:52 10.2 6.5 78 241 0.6 1.9 1024.5 0.0000 0.0000
09:17 10.7 7 78 225 0.8 2.5 1024.6 0.0000 0.0000
09:27 11 7.1 77 232 0.6 2.8 1024.6 0.0000 0.0000
09:37 11.4 7.5 77 242 0.8 2.5 1024.6 0.0000 0.0000
09:48 11.8 7.7 76 241 0.8 1.9 1024.6 0.0000 0.0000
09:57 12 7.7 75 249 0.8 2.5 1024.7 0.0000 0.0000
10:07 12.4 7.9 74 242 0.8 3.9 1024.6 0.0000 0.0000
10:18 12.7 8.2 74 262 1.7 3.3 1024.6 0.0000 0.0000
10:28 13.1 8.6 74 254 0.8 2.8 1024.5 0.0000 0.0000
11:03 14.1 8.7 70 270 1.7 4.4 1024.7 0.0000 0.0000
11:13 14.3 9.1 71 270 1.4 3.1 1024.6 0.0000 0.0000
11:23 14.5 9.1 70 262 1.7 3.3 1024.7 0.0000 0.0000
11:33 14.7 9.3 70 264 1.9 4.4 1024.8 0.0000 0.0000
11:43 14.8 9.4 70 264 1.7 3.1 1024.7 0.0000 0.0000
11:53 14.8 9.4 70 253 1.7 3.9 1024.8 0.0000 0.0000
12:09 15 9.6 70 270 1.7 3.9 1024.7 0.0000 0.0000
12:23 15.2 9.6 69 270 1.7 3.1 1024.6 0.0000 0.0000
12:33 15.4 10 70 270 1.7 3.9 1024.5 0.0000 0.0000
12:49 15.5 9.6 68 270 1.7 3.9 1024.5 0.0000 0.0000
12:59 15.7 10 69 270 1.4 3.9 1024.4 0.0000 0.0000
13:08 15.9 10 68 270 1.7 3.9 1024.3 0.0000 0.0000
13:19 16.2 10.1 67 264 1.7 3.9 1024 0.0000 0.0000
13:34 16.5 10.4 67 277 1.4 3.1 1024 0.0000 0.0000
13:44 16.4 10.3 67 205 1.4 4.2 1024 0.0000 0.0000
13:54 16.2 10.1 67 254 1.9 5.6 1024.1 0.0000 0.0000
14:04 15.7 10.3 70 270 1.4 3.9 1024.1 0.0000 0.0000
14:14 15.4 10.4 72 243 1.4 3.3 1024 0.0000 0.0000
14:25 15.3 10.5 73 254 0.8 2.2 1024 0.0000 0.0000
14:35 15.5 10.7 73 257 1.4 3.9 1023.8 0.0000 0.0000
15:05 16.2 10.7 70 254 1.4 4.2 1023.5 0.0000 0.0000
15:15 16.2 10.3 68 244 1.9 4.7 1023.4 0.0000 0.0000
15:30 16.3 10.4 68 260 1.4 3.1 1023.3 0.0000 0.0000
15:40 16.3 10.4 68 244 1.4 3.3 1023.2 0.0000 0.0000
15:55 16.4 10.5 68 256 1.4 3.3 1023.1 0.0000 0.0000
16:05 16.3 10.2 67 252 1.9 5.3 1023.1 0.0000 0.0000
16:16 16.2 10.3 68 262 1.7 3.3 1023.1 0.0000 0.0000
16:26 16.2 10.3 68 262 1.9 4.4 1022.9 0.0000 0.0000
16:35 16.2 10.3 68 265 1.7 4.2 1022.9 0.0000 0.0000
16:46 16.1 10.2 68 261 1.4 2.5 1022.8 0.0000 0.0000
16:56 16.1 10.2 68 245 1.4 3.1 1022.7 0.0000 0.0000
17:16 16 10.1 68 270 1.9 4.4 1022.6 0.0000 0.0000
17:26 16 10.3 69 270 1.4 3.1 1022.6 0.0000 0.0000
17:36 15.8 10.1 69 259 1.7 4.2 1022.5 0.0000 0.0000
17:46 15.7 10.3 70 261 1.7 3.9 1022.5 0.0000 0.0000
17:56 15.5 10.1 70 259 2.2 4.7 1022.4 0.0000 0.0000
18:07 15.3 10.1 71 262 1.7 4.4 1022.3 0.0000 0.0000
18:42 14.8 10 73 270 1.4 3.3 1022.1 0.0000 0.0000
18:52 14.8 10.2 74 253 1.4 2.8 1022 0.0000 0.0000
19:27 14.4 10 75 255 0.8 2.8 1022.1 0.0000 0.0000
19:37 14.3 10.1 76 239 0.8 2.8 1022 0.0000 0.0000
19:47 14.2 10 76 261 1.4 2.8 1022.1 0.0000 0.0000
20:02 14.1 10.1 77 251 0.8 2.8 1022.2 0.0000 0.0000
20:17 14 10 77 246 0.6 2.8 1022.2 0.0000 0.0000
20:28 13.9 10.1 78 250 0.8 2.5 1022.1 0.0000 0.0000
20:47 13.8 10 78 247 0.8 2.8 1021.9 0.0000 0.0000
20:58 13.8 10.2 79 249 0.8 2.2 1021.9 0.0000 0.0000
21:13 13.7 10.1 79 244 0.8 2.2 1021.8 0.0000 0.0000
21:22 13.7 10.1 79 253 0.8 2.2 1021.9 0.0000 0.0000
21:33 13.7 10.1 79 254 0.8 1.9 1021.9 0.0000 0.0000
22:18 13.5 10.1 80 270 0.8 2.2 1021.9 0.0000 0.0000
22:38 13.5 10.3 81 235 0.8 2.5 1021.9 0.0000 0.0000
22:49 13.4 10.2 81 236 0.8 2.8 1021.8 0.0000 0.0000
23:13 13.4 10.2 81 270 0.8 2.5 1021.5 0.0000 0.0000
23:24 13.4 10.2 81 253 0.6 2.2 1021.4 0.0000 0.0000
23:43 13.4 10.2 81 238 0.6 2.5 1021.2 0.0000 0.0000
23:54 13.3 10.1 81 242 0.6 3.3 1021.1 0.0000

DAY STATISTIC

2019-09-20
TEMPERATURE
AVERAGE
12.5
HIGH
16.5
13:34
LOW
7.1
03:45
PRESSURE
AVERAGE
1023.8
HIGH
1025.5
00:03
LOW
1021.1
23:54
DEWPOINT
AVERAGE
8.1
HIGH
10.7
14:35
LOW
3.8
01:29
HUMIDITY
AVERAGE
75
HIGH
82
04:30
LOW
67
13:19
WIND SPEED
AVERAGE
1.0
HIGH
2.2
17:56
WIND GUST
AVERAGE
2.7
HIGH
5.6
13:54
WIND DIRECTION
PREVAILING
W
72%
N
0.0
NE
0.0
E
0.0
SE
0.0
S
5.0
SW
22.0
W
72.0
NW
1.0
PRECIPITATION
RAIN HOUR
0.0
RAIN DAY
0.0
TEMPERATURE (°C)
LOW
7.1
HIGH
16.5
AVERAGE
12.5
PRESSURE (hpa)
LOW
1021.1
HIGH
1025.5
AVERAGE
1023.8
DEVICE